Hauptseite
METAR-TAF:

METAR-TAF

Flughäfen :

Amman, Jordanien

Flughafen Marka International

Breite: 31-59N, Länge: 035-59E, Höhe: 767 m

Beobachtung

Neuester Wetterbericht von vor 29 Minuten, um 22:00 UTC
Wind 6 kt aus West/Nordwest
Temperatur 26°C
Luftfeuchtigkeit 34%
Luftdruck 1010 hPa
Sichtweite: 6000 m

METAR: OJAM 232200Z 30006KT 6000 NSC 26/09 Q1010 NOSIG

Zeit: 01:29 (22:29 UTC)

Prognose

Neuester Wetterbericht von vor 5 Stunden und 39 Minuten, um 16:50 UTC
Gültige Prognose vom 23 um 18 UTC bis 24 um 24 UTC
Wind 12 kt aus West/Nordwest
Sichtweite: 6000 m
Zeitweise
vom 24 um 01 UTC bis 24 um 05 UTC
Wind 6 kt aus West/Nordwest
Sichtweite: 3000 m
Rauch

TAF: OJAM 231650Z 2318/2424 30012KT 6000 NSC TEMPO 2401/2405 29006KT 3000 FU

Wetterbeobachtungen und Prognosen von mehr als 4000 Flughäfen (METAR und TAF Bericht).

Die verfügbaren Stationen werden durch gelbe und rote Markierungen auf der Karte dargestellt.

Führen Sie die Maus auf sie, um den Namen der Station zu sehen.

Darauf klicken, um die Beobachtung von Wetterbeobachtungen und Prognosen zu sehen.

Um die Karte zu ändern : klicken Sie auf den grünen Tasten mit einem schwarzen Kreuz Zum Vergrößern, auf den grünen Button mit einem Gedankenstrich zu verkleinern, oder auf die grünen Pfeile für benachbarte Karten.


METAR-TAF: